Airport ICAO


12:44 UTC

10°C

Few clouds


An affordable passengers' Moving Map for your aircraft. Made for the iPad and the iPhone
More information here

EGMD Lydd


Lydd UNITED KINGDOM   VFR


METAR EGMD 101220Z 33014KT 9999 FEW020 10/07 Q1027 0h24min

TAF EGMD 101057Z 1012/1021 30008KT 9999 BKN045 1h47min





NOTAMS

OPEN